Time;durP1;ratioP1;P1;durP2;ratioP2;P2;SDS_P1;SDS_P2;PMS_P1;PMS_P2;Temp;Humidity;BMP_temperature;BMP_pressure;BME280_temperature;BME280_humidity;BME280_pressure;Samples;Min_cycle;Max_cycle;Signal;HPM_P1;HPM_P2
2022/07/11 00:01:36;;;;;;;3.17;0.45;;;;;;;15.06;60.19;99169.19;5029662;28;20409;-64
2022/07/11 00:04:21;;;;;;;0.55;0.40;;;;;;;14.95;60.55;99185.84;5022042;28;20053;-65
2022/07/11 00:07:09;;;;;;;0.80;0.30;;;;;;;14.92;60.66;99180.81;5025932;28;20398;-65
2022/07/11 00:09:54;;;;;;;1.85;0.43;;;;;;;14.87;60.70;99183.84;5029028;28;20042;-65
2022/07/11 00:12:38;;;;;;;0.88;0.30;;;;;;;14.92;61.04;99174.72;5030543;28;20351;-64
2022/07/11 00:15:23;;;;;;;2.33;0.50;;;;;;;14.90;61.32;99170.41;5020086;28;20052;-64
2022/07/11 00:18:08;;;;;;;0.68;0.40;;;;;;;14.78;62.04;99174.00;5019836;28;20049;-64
2022/07/11 00:20:53;;;;;;;0.40;0.30;;;;;;;14.71;61.91;99172.78;5012479;28;20046;-64
2022/07/11 00:23:38;;;;;;;1.58;0.60;;;;;;;14.83;60.89;99171.03;5040252;28;20046;-64
2022/07/11 00:26:23;;;;;;;1.10;0.50;;;;;;;14.72;61.14;99170.03;5003242;28;20080;-64
2022/07/11 00:29:08;;;;;;;1.67;0.40;;;;;;;14.70;60.80;99173.78;5035910;28;20444;-64
2022/07/11 00:31:52;;;;;;;1.55;0.40;;;;;;;14.72;61.34;99174.50;5002976;28;20041;-65
2022/07/11 00:34:37;;;;;;;1.63;0.40;;;;;;;14.85;62.08;99174.38;5029115;28;20394;-65
2022/07/11 00:37:22;;;;;;;1.95;0.50;;;;;;;14.77;60.61;99177.63;5033492;28;20052;-64
2022/07/11 00:40:08;;;;;;;1.70;0.43;;;;;;;14.88;62.43;99180.22;5028421;28;20033;-64
2022/07/11 00:42:53;;;;;;;1.17;0.30;;;;;;;14.85;60.99;99182.28;5040853;28;20052;-64
2022/07/11 00:45:37;;;;;;;2.60;0.40;;;;;;;14.78;61.84;99177.50;5051806;28;20536;-64
2022/07/11 00:48:25;;;;;;;1.23;0.20;;;;;;;14.89;61.22;99178.44;5024987;28;20049;-64
2022/07/11 00:51:11;;;;;;;1.10;0.38;;;;;;;14.92;60.44;99172.09;5035747;28;20041;-65
2022/07/11 00:53:58;;;;;;;0.82;0.40;;;;;;;14.80;60.83;99169.47;5042007;28;20071;-64
2022/07/11 00:56:43;;;;;;;1.33;0.40;;;;;;;14.95;60.72;99170.03;5029127;28;20482;-64
2022/07/11 00:59:29;;;;;;;0.88;0.30;;;;;;;14.76;60.79;99174.13;5016671;28;20120;-64
2022/07/11 01:02:13;;;;;;;1.40;0.50;;;;;;;14.59;61.57;99164.91;5015594;28;20068;-64
2022/07/11 01:04:58;;;;;;;1.10;0.30;;;;;;;14.71;63.21;99171.00;5027750;28;20046;-64
2022/07/11 01:07:43;;;;;;;2.28;0.30;;;;;;;14.78;61.20;99171.38;5033804;28;20037;-64
2022/07/11 01:10:28;;;;;;;1.75;0.55;;;;;;;14.74;61.49;99168.13;5041128;28;20521;-64
2022/07/11 01:13:12;;;;;;;1.35;0.47;;;;;;;14.64;61.78;99170.66;5034020;28;20547;-64
2022/07/11 01:16:18;;;;;;;1.65;0.40;;;;;;;14.62;62.95;99161.19;5034676;28;20049;-64
2022/07/11 01:19:02;;;;;;;1.52;0.50;;;;;;;14.71;62.60;99162.25;5021764;28;20041;-65
2022/07/11 01:21:54;;;;;;;0.95;0.43;;;;;;;14.74;62.11;99165.50;5032944;28;20072;-63
2022/07/11 01:24:39;;;;;;;1.40;0.40;;;;;;;14.58;61.59;99167.66;5004660;28;20072;-63
2022/07/11 01:27:24;;;;;;;0.85;0.30;;;;;;;14.49;62.22;99164.78;5033407;28;20042;-63
2022/07/11 01:30:09;;;;;;;2.05;0.30;;;;;;;14.34;62.30;99166.00;5028024;28;20046;-64
2022/07/11 01:32:54;;;;;;;0.80;0.40;;;;;;;14.29;62.65;99163.72;5026651;28;20490;-64
2022/07/11 01:35:39;;;;;;;0.75;0.30;;;;;;;14.41;63.14;99160.13;5029580;28;20037;-64
2022/07/11 01:38:24;;;;;;;1.33;0.40;;;;;;;14.49;63.93;99161.34;5002548;28;20449;-65
2022/07/11 01:41:08;;;;;;;0.73;0.30;;;;;;;14.53;62.87;99153.06;5028162;28;20049;-65
2022/07/11 01:43:54;;;;;;;0.73;0.38;;;;;;;14.49;63.19;99150.78;5028163;28;20116;-65
2022/07/11 01:46:39;;;;;;;2.67;1.00;;;;;;;14.53;62.90;99155.69;5028298;28;20041;-65
2022/07/11 01:49:23;;;;;;;1.85;0.40;;;;;;;14.23;62.63;99151.84;5019761;28;20038;-65
2022/07/11 01:52:09;;;;;;;0.95;0.43;;;;;;;14.24;64.60;99148.28;5028580;28;20049;-65
2022/07/11 01:54:54;;;;;;;0.85;0.30;;;;;;;14.18;64.92;99156.66;5015915;28;20070;-65
2022/07/11 01:57:39;;;;;;;2.13;0.50;;;;;;;14.11;63.98;99151.03;5019794;28;20052;-64
2022/07/11 02:00:23;;;;;;;0.43;0.20;;;;;;;14.02;64.47;99149.09;5017138;28;20089;-65
2022/07/11 02:03:08;;;;;;;2.08;0.30;;;;;;;14.07;65.59;99152.22;5029890;28;20517;-65
2022/07/11 02:05:53;;;;;;;2.47;0.45;;;;;;;14.06;64.50;99147.06;5032575;28;20045;-64
2022/07/11 02:08:38;;;;;;;2.40;0.40;;;;;;;13.90;64.79;99145.63;5019226;28;20049;-64
2022/07/11 02:11:23;;;;;;;0.70;0.50;;;;;;;13.79;64.57;99139.38;5031440;28;20075;-64
2022/07/11 02:14:08;;;;;;;1.05;0.47;;;;;;;13.82;65.56;99146.22;5031605;28;20084;-64
2022/07/11 02:16:52;;;;;;;1.00;0.20;;;;;;;13.78;64.79;99140.34;5033843;28;20100;-64
2022/07/11 02:19:37;;;;;;;2.45;0.32;;;;;;;13.89;65.22;99138.66;5017317;28;20508;-63
2022/07/11 02:22:22;;;;;;;1.10;0.60;;;;;;;13.94;65.06;99139.16;5016740;28;20076;-64
2022/07/11 02:25:07;;;;;;;2.13;0.68;;;;;;;13.97;64.93;99140.72;5021095;28;20045;-64
2022/07/11 02:27:52;;;;;;;0.73;0.30;;;;;;;13.88;64.30;99129.94;5034895;28;20037;-64
2022/07/11 02:30:37;;;;;;;0.75;0.40;;;;;;;13.78;65.05;99135.06;5023767;28;20062;-63
2022/07/11 02:33:22;;;;;;;1.02;0.32;;;;;;;13.72;66.09;99135.53;5017857;28;20045;-63
2022/07/11 02:36:08;;;;;;;1.73;0.30;;;;;;;13.71;67.05;99139.09;5017258;28;20096;-63
2022/07/11 02:38:52;;;;;;;2.20;0.60;;;;;;;13.61;66.38;99138.16;5021606;28;20041;-63
2022/07/11 02:41:37;;;;;;;1.58;0.50;;;;;;;13.69;66.23;99137.56;5029404;28;20045;-63
2022/07/11 02:44:21;;;;;;;2.05;0.50;;;;;;;13.52;66.75;99143.16;5020833;28;20751;-64
2022/07/11 02:47:06;;;;;;;2.00;0.50;;;;;;;13.53;67.79;99141.38;5031982;28;20104;-63
2022/07/11 02:49:51;;;;;;;2.45;0.40;;;;;;;13.42;66.72;99142.13;5031924;28;20084;-63
2022/07/11 02:52:36;;;;;;;0.43;0.28;;;;;;;13.27;67.30;99142.31;5013352;28;20502;-63
2022/07/11 02:55:20;;;;;;;1.13;0.43;;;;;;;13.19;68.25;99147.28;5029105;28;20041;-64
2022/07/11 02:58:05;;;;;;;1.23;0.40;;;;;;;13.26;68.05;99150.31;5041735;28;20485;-62
2022/07/11 03:00:51;;;;;;;2.15;0.40;;;;;;;13.18;68.34;99146.47;5039745;28;20065;-64
2022/07/11 03:03:35;;;;;;;1.15;0.30;;;;;;;13.18;68.00;99141.22;5020752;28;20080;-64
2022/07/11 03:06:21;;;;;;;1.65;0.30;;;;;;;13.21;68.99;99145.38;5018723;28;20486;-62
2022/07/11 03:09:07;;;;;;;1.15;0.38;;;;;;;13.27;68.64;99144.94;5028795;28;20135;-62
2022/07/11 03:11:52;;;;;;;1.40;0.50;;;;;;;13.14;68.21;99145.00;5028913;28;20103;-65
2022/07/11 03:14:36;;;;;;;1.88;0.40;;;;;;;13.29;67.70;99150.09;5031079;28;20056;-65
2022/07/11 03:17:21;;;;;;;0.55;0.30;;;;;;;13.35;68.72;99141.72;5033754;28;20049;-64
2022/07/11 03:20:07;;;;;;;1.77;0.50;;;;;;;13.33;67.14;99140.19;5031830;28;20486;-66
2022/07/11 03:22:52;;;;;;;0.52;0.25;;;;;;;13.27;68.63;99138.81;5030663;28;20402;-65
2022/07/11 03:25:36;;;;;;;1.77;0.25;;;;;;;13.22;68.03;99136.53;5017651;28;20049;-64
2022/07/11 03:28:21;;;;;;;1.45;0.40;;;;;;;13.25;68.33;99138.94;5032215;28;20037;-65
2022/07/11 03:31:06;;;;;;;0.82;0.40;;;;;;;13.40;68.39;99138.75;5003787;28;20057;-65
2022/07/11 03:33:50;;;;;;;1.42;0.50;;;;;;;13.46;68.00;99132.19;5017740;28;20046;-64
2022/07/11 03:36:35;;;;;;;1.30;0.30;;;;;;;13.34;69.25;99132.16;5030866;28;20041;-65
2022/07/11 03:39:23;;;;;;;1.02;0.30;;;;;;;13.43;68.33;99130.66;5026637;28;20045;-65
2022/07/11 03:42:08;;;;;;;1.38;0.40;;;;;;;13.55;67.65;99136.81;5023637;28;20406;-65
2022/07/11 03:44:53;;;;;;;1.45;0.38;;;;;;;13.69;67.20;99127.88;5024689;28;20167;-65
2022/07/11 03:47:38;;;;;;;0.98;0.30;;;;;;;13.78;67.27;99135.06;5020243;28;20041;-64
2022/07/11 03:50:23;;;;;;;0.55;0.30;;;;;;;13.82;66.67;99137.47;5017933;28;20045;-65
2022/07/11 03:53:07;;;;;;;1.98;0.40;;;;;;;13.77;65.95;99135.19;5033829;28;20042;-65
2022/07/11 03:55:52;;;;;;;0.82;0.40;;;;;;;13.75;67.16;99143.22;5039425;28;20044;-64
2022/07/11 03:58:37;;;;;;;2.22;0.30;;;;;;;13.69;66.93;99143.69;5024300;28;20056;-65
2022/07/11 04:01:22;;;;;;;1.05;0.52;;;;;;;13.60;67.20;99145.19;5012582;28;20038;-65
2022/07/11 04:04:08;;;;;;;0.90;0.25;;;;;;;13.61;67.73;99153.94;5026508;28;20091;-65
2022/07/11 04:06:52;;;;;;;0.65;0.20;;;;;;;13.61;67.39;99146.88;5024412;28;20045;-62
2022/07/11 04:09:37;;;;;;;1.48;0.30;;;;;;;13.66;67.17;99152.63;5027348;28;20041;-62
2022/07/11 04:12:22;;;;;;;2.97;0.40;;;;;;;13.82;66.28;99145.38;5035870;28;20179;-62
2022/07/11 04:15:07;;;;;;;1.55;0.40;;;;;;;13.92;65.70;99155.06;5021256;28;20033;-63
2022/07/11 04:17:52;;;;;;;1.13;0.40;;;;;;;13.88;65.68;99142.25;5029543;28;20048;-62
2022/07/11 04:20:36;;;;;;;1.95;0.40;;;;;;;13.98;65.73;99139.75;5031865;28;20056;-63
2022/07/11 04:23:21;;;;;;;1.48;0.20;;;;;;;14.31;65.41;99140.75;5028955;28;20041;-62
2022/07/11 04:26:06;;;;;;;1.45;0.50;;;;;;;14.59;63.96;99137.72;5042051;28;20056;-63
2022/07/11 04:28:50;;;;;;;1.40;0.45;;;;;;;14.88;64.18;99135.38;5018497;28;20069;-63
2022/07/11 04:31:35;;;;;;;0.98;0.32;;;;;;;14.80;63.03;99137.84;5000457;28;20049;-63
2022/07/11 04:34:20;;;;;;;1.52;0.40;;;;;;;14.72;63.73;99134.94;5002582;28;20070;-62
2022/07/11 04:37:04;;;;;;;1.45;0.35;;;;;;;14.76;63.94;99142.47;4997611;28;20046;-62
2022/07/11 04:39:49;;;;;;;1.00;0.20;;;;;;;14.71;65.28;99146.44;5004597;28;20100;-62
2022/07/11 04:42:34;;;;;;;1.85;0.30;;;;;;;14.78;66.35;99139.72;5003478;28;20118;-62
2022/07/11 04:45:19;;;;;;;1.05;0.47;;;;;;;14.87;65.71;99151.34;5039372;28;20058;-62
2022/07/11 04:48:04;;;;;;;1.25;0.30;;;;;;;14.97;65.90;99154.91;5010271;28;20053;-63
2022/07/11 04:50:48;;;;;;;1.17;0.20;;;;;;;15.11;64.19;99147.69;4992359;28;20049;-62
2022/07/11 04:53:33;;;;;;;0.95;0.38;;;;;;;15.27;65.52;99161.31;4991492;28;20050;-62
2022/07/11 04:56:18;;;;;;;0.98;0.20;;;;;;;15.57;63.94;99156.25;4991520;28;20054;-63
2022/07/11 04:59:04;;;;;;;0.57;0.30;;;;;;;15.51;62.78;99165.53;4990841;28;20126;-63
2022/07/11 05:01:50;;;;;;;1.60;0.30;;;;;;;15.46;62.63;99161.56;5002339;28;20057;-63
2022/07/11 05:04:34;;;;;;;0.98;0.35;;;;;;;15.70;61.75;99152.59;4976679;28;20150;-62
2022/07/11 05:07:19;;;;;;;1.67;0.50;;;;;;;15.81;60.28;99165.72;5004891;28;20050;-62
2022/07/11 05:10:05;;;;;;;2.15;0.30;;;;;;;15.83;61.28;99171.69;5011123;28;20048;-62
2022/07/11 05:12:50;;;;;;;3.17;0.30;;;;;;;15.71;60.45;99164.81;4997100;28;20483;-62
2022/07/11 05:15:34;;;;;;;1.48;0.20;;;;;;;16.00;60.76;99164.19;5010950;28;20049;-62
2022/07/11 05:18:19;;;;;;;0.45;0.20;;;;;;;15.80;60.16;99177.25;5009498;28;20045;-62
2022/07/11 05:21:05;;;;;;;2.03;0.47;;;;;;;15.97;59.34;99172.34;5024575;28;20121;-63
2022/07/11 05:23:50;;;;;;;1.08;0.38;;;;;;;16.01;60.94;99166.69;5003621;28;20930;-62
2022/07/11 05:26:36;;;;;;;3.03;0.43;;;;;;;16.06;60.15;99176.06;5017078;28;20050;-63
2022/07/11 05:29:20;;;;;;;1.75;0.40;;;;;;;15.97;62.26;99177.63;5007637;28;20050;-62
2022/07/11 05:32:06;;;;;;;1.52;0.30;;;;;;;16.05;61.81;99180.50;5014757;28;20038;-63
2022/07/11 05:34:50;;;;;;;1.58;0.32;;;;;;;16.01;61.45;99179.09;5002696;28;20072;-62
2022/07/11 05:37:35;;;;;;;1.05;0.20;;;;;;;16.03;61.57;99186.88;5019733;28;20384;-62
2022/07/11 05:40:20;;;;;;;3.13;0.55;;;;;;;15.91;62.16;99183.44;5017042;28;20434;-62
2022/07/11 05:43:07;;;;;;;5.85;0.75;;;;;;;15.77;62.06;99180.13;5021762;28;20407;-62
2022/07/11 05:45:52;;;;;;;1.48;0.28;;;;;;;15.82;62.13;99190.31;5007260;28;20073;-62
2022/07/11 05:48:36;;;;;;;1.65;0.43;;;;;;;15.57;61.46;99187.09;5034337;28;20066;-61
2022/07/11 05:51:21;;;;;;;1.67;0.40;;;;;;;15.68;63.49;99192.34;5033656;28;20447;-62
2022/07/11 05:54:06;;;;;;;1.20;0.25;;;;;;;15.70;62.98;99200.13;5020016;28;20061;-61
2022/07/11 05:56:52;;;;;;;0.73;0.38;;;;;;;15.41;63.18;99203.38;5033723;28;20120;-62
2022/07/11 05:59:38;;;;;;;1.50;0.32;;;;;;;15.44;63.62;99206.56;5014221;28;20053;-62
2022/07/11 06:02:23;;;;;;;0.80;0.30;;;;;;;15.43;64.32;99196.16;5025417;28;20056;-62
2022/07/11 06:05:07;;;;;;;1.20;0.45;;;;;;;15.07;63.82;99206.94;5042488;28;20052;-62
2022/07/11 06:10:55;;;;;;;1.27;0.40;;;;;;;15.11;65.30;99211.03;5028846;28;20045;-62
2022/07/11 06:13:41;;;;;;;0.90;0.30;;;;;;;15.31;65.31;99211.22;5032972;28;20041;-61
2022/07/11 06:16:26;;;;;;;1.38;0.30;;;;;;;15.27;67.28;99210.59;5031885;28;20052;-62
2022/07/11 06:19:11;;;;;;;3.00;0.28;;;;;;;15.30;65.64;99217.44;5031905;28;20095;-62
2022/07/11 06:21:56;;;;;;;1.45;0.22;;;;;;;15.24;66.35;99209.03;5034783;28;20087;-62
2022/07/11 06:24:41;;;;;;;1.58;0.45;;;;;;;15.13;67.31;99209.91;5033750;28;20391;-61
2022/07/11 06:27:25;;;;;;;1.60;0.35;;;;;;;15.37;66.91;99210.69;5016604;28;20147;-62
2022/07/11 06:30:10;;;;;;;2.63;0.50;;;;;;;15.40;66.81;99210.44;5030442;28;20045;-61
2022/07/11 06:32:55;;;;;;;1.63;0.40;;;;;;;15.25;66.58;99213.38;5028692;28;20128;-62
2022/07/11 06:35:41;;;;;;;1.33;0.50;;;;;;;15.15;66.30;99209.78;5031235;28;20175;-62
2022/07/11 06:38:26;;;;;;;2.05;0.40;;;;;;;15.10;66.26;99210.16;5029565;28;20041;-62
2022/07/11 06:41:10;;;;;;;3.45;0.30;;;;;;;15.08;66.26;99206.81;5025793;28;20482;-62
2022/07/11 06:43:55;;;;;;;1.55;0.30;;;;;;;15.10;66.44;99211.97;5017375;28;20038;-62
2022/07/11 06:46:39;;;;;;;1.63;0.40;;;;;;;15.02;66.70;99208.16;5014192;28;20490;-62
2022/07/11 06:49:25;;;;;;;3.35;0.35;;;;;;;15.36;68.42;99209.00;5030188;28;20086;-62
2022/07/11 06:52:09;;;;;;;2.28;0.40;;;;;;;15.39;65.40;99216.69;5019481;28;20069;-62
2022/07/11 06:54:54;;;;;;;3.05;0.45;;;;;;;15.51;65.76;99212.19;5013381;28;20033;-62
2022/07/11 06:57:39;;;;;;;1.02;0.40;;;;;;;15.50;64.75;99213.16;5025361;28;20457;-62
2022/07/11 07:00:23;;;;;;;0.50;0.40;;;;;;;15.58;65.60;99212.53;5021637;28;20045;-63
2022/07/11 07:03:08;;;;;;;3.63;0.77;;;;;;;15.56;64.02;99209.16;5018306;28;20679;-63
2022/07/11 07:05:56;;;;;;;1.80;0.25;;;;;;;15.94;64.48;99206.94;5031669;28;20042;-62
2022/07/11 07:08:40;;;;;;;0.85;0.35;;;;;;;16.00;62.72;99212.59;5020786;28;20095;-61
2022/07/11 07:11:25;;;;;;;1.85;0.43;;;;;;;16.09;61.54;99207.50;5018609;28;20132;-62
2022/07/11 07:14:13;;;;;;;1.33;0.30;;;;;;;16.13;62.40;99212.38;5032600;28;20041;-61
2022/07/11 07:16:58;;;;;;;1.48;0.30;;;;;;;16.11;62.45;99213.47;5032959;28;20072;-61
2022/07/11 07:19:43;;;;;;;1.02;0.43;;;;;;;16.37;63.51;99208.59;5031659;28;20042;-61
2022/07/11 07:22:29;;;;;;;0.93;0.40;;;;;;;16.53;61.83;99203.81;5022775;28;20081;-62
2022/07/11 07:25:22;;;;;;;3.30;0.40;;;;;;;16.69;61.76;99203.31;5018008;28;20042;-65
2022/07/11 07:28:07;;;;;;;1.48;0.50;;;;;;;17.03;60.68;99197.69;5012159;28;20041;-62
2022/07/11 07:31:04;;;;;;;2.63;0.60;;;;;;;16.82;60.30;99201.25;5032235;28;20057;-62
2022/07/11 07:33:50;;;;;;;3.45;0.40;;;;;;;17.00;61.48;99197.97;5016985;28;20547;-62
2022/07/11 07:36:40;;;;;;;3.15;0.38;;;;;;;17.81;58.99;99187.25;5017816;28;20053;-63
2022/07/11 07:39:28;;;;;;;2.67;0.40;;;;;;;17.36;58.74;99190.34;5032306;28;20266;-63
2022/07/11 07:42:16;;;;;;;1.10;0.50;;;;;;;18.01;57.66;99181.91;5011690;28;20049;-63
2022/07/11 07:45:06;;;;;;;1.70;0.60;;;;;;;19.16;54.38;99181.69;4999249;28;20041;-63
2022/07/11 07:47:51;;;;;;;1.63;0.70;;;;;;;19.82;50.96;99186.72;5021154;28;20100;-61
2022/07/11 07:50:38;;;;;;;3.13;0.40;;;;;;;19.63;51.94;99181.59;5033128;28;20055;-61
2022/07/11 07:53:23;;;;;;;0.95;0.43;;;;;;;20.32;50.46;99180.88;5038961;28;20037;-62
2022/07/11 07:56:08;;;;;;;1.15;0.22;;;;;;;20.58;50.63;99181.84;5006478;28;20397;-62
2022/07/11 07:58:53;;;;;;;4.25;0.82;;;;;;;20.76;47.25;99176.44;5003834;28;20073;-63
2022/07/11 08:01:41;;;;;;;3.03;0.60;;;;;;;20.35;49.13;99183.22;5019610;28;20084;-63
2022/07/11 08:04:27;;;;;;;2.72;0.43;;;;;;;20.06;50.15;99176.44;5020649;28;20049;-62
2022/07/11 08:07:12;;;;;;;2.72;0.35;;;;;;;20.05;50.15;99178.28;5022047;28;20410;-63
2022/07/11 08:09:57;;;;;;;5.32;0.75;;;;;;;19.81;50.42;99170.94;5019590;28;20045;-65
2022/07/11 08:12:42;;;;;;;2.55;0.57;;;;;;;19.68;50.83;99169.50;5018039;28;20045;-64
2022/07/11 08:15:26;;;;;;;1.63;0.63;;;;;;;20.15;50.72;99167.53;5029966;28;20049;-62
2022/07/11 08:18:12;;;;;;;3.92;0.70;;;;;;;20.64;48.14;99171.41;5025580;28;20075;-62
2022/07/11 08:20:56;;;;;;;2.88;0.82;;;;;;;19.86;48.98;99173.13;4998197;28;20398;-62
2022/07/11 08:23:41;;;;;;;3.03;0.70;;;;;;;20.38;48.45;99160.81;5021421;28;20045;-61
2022/07/11 08:26:31;;;;;;;1.38;0.52;;;;;;;21.26;46.19;99160.56;5030097;28;20045;-63
2022/07/11 08:29:22;;;;;;;2.45;0.55;;;;;;;21.94;44.92;99167.53;5030311;28;20061;-63
2022/07/11 08:32:13;;;;;;;1.85;0.55;;;;;;;21.70;44.52;99162.06;5022931;28;20156;-62
2022/07/11 08:34:58;;;;;;;3.38;0.57;;;;;;;21.12;45.67;99170.88;5016177;28;20410;-63
2022/07/11 08:37:43;;;;;;;1.40;0.75;;;;;;;21.23;45.90;99176.88;5017754;28;20057;-62
2022/07/11 08:40:28;;;;;;;1.40;0.30;;;;;;;21.64;47.34;99166.22;5017844;28;20045;-62
2022/07/11 08:43:15;;;;;;;2.53;0.60;;;;;;;22.09;45.28;99176.53;5017513;28;20052;-62
2022/07/11 08:46:00;;;;;;;2.63;0.73;;;;;;;22.25;45.28;99172.13;5020633;28;20414;-63
2022/07/11 08:48:47;;;;;;;3.97;0.50;;;;;;;20.79;46.78;99176.91;5014154;28;20038;-62
2022/07/11 08:51:36;;;;;;;2.15;0.55;;;;;;;20.52;49.43;99186.81;5008980;28;20088;-63
2022/07/11 08:54:21;;;;;;;2.15;0.60;;;;;;;20.42;48.38;99186.09;5002935;28;20049;-63
2022/07/11 08:57:15;;;;;;;2.28;0.70;;;;;;;19.64;50.25;99183.25;5016826;28;20049;-63
2022/07/11 09:00:00;;;;;;;1.42;0.50;;;;;;;19.42;51.77;99185.44;5026889;28;20045;-62
2022/07/11 09:02:46;;;;;;;1.88;0.45;;;;;;;19.04;52.58;99196.16;5013852;28;20081;-63
2022/07/11 09:05:32;;;;;;;3.47;0.73;;;;;;;18.98;52.78;99189.59;5042303;28;20093;-62
2022/07/11 09:08:16;;;;;;;3.13;0.68;;;;;;;19.03;53.87;99192.66;5030321;28;20033;-62
2022/07/11 09:11:04;;;;;;;3.75;0.50;;;;;;;19.30;54.62;99190.97;5029838;28;20042;-63
2022/07/11 09:13:51;;;;;;;1.45;0.50;;;;;;;19.37;54.25;99195.66;5047330;28;20047;-63
2022/07/11 09:17:03;;;;;;;2.35;0.52;;;;;;;19.12;55.99;99200.72;5013861;28;20057;-64
2022/07/11 09:19:48;;;;;;;1.48;0.32;;;;;;;19.08;57.70;99193.03;5014007;28;20072;-63
2022/07/11 09:25:43;;;;;;;1.55;0.60;;;;;;;18.51;60.15;99211.81;5041745;28;20048;-63
2022/07/11 09:28:28;;;;;;;1.20;0.50;;;;;;;18.33;62.45;99205.44;5022532;28;20046;-63
2022/07/11 09:31:17;;;;;;;3.03;0.70;;;;;;;18.29;62.82;99196.09;5036379;28;20486;-65
2022/07/11 09:34:09;;;;;;;3.47;0.60;;;;;;;18.35;63.87;99207.94;5042379;28;20037;-63
2022/07/11 09:36:55;;;;;;;3.80;0.70;;;;;;;18.36;63.99;99212.25;5020234;28;20041;-63
2022/07/11 09:39:40;;;;;;;2.67;0.57;;;;;;;18.33;65.33;99209.88;5020337;28;20042;-63
2022/07/11 09:42:46;;;;;;;1.70;0.60;;;;;;;18.40;63.29;99204.84;5036601;28;20056;-64
2022/07/11 09:45:34;;;;;;;1.45;0.60;;;;;;;18.38;65.11;99209.47;5027446;28;20045;-64
2022/07/11 09:48:22;;;;;;;1.38;0.30;;;;;;;18.25;64.44;99205.31;5029245;28;20088;-64
2022/07/11 09:51:07;;;;;;;2.28;0.45;;;;;;;18.59;67.75;99210.06;5035588;28;20087;-63
2022/07/11 09:53:55;;;;;;;2.42;0.47;;;;;;;18.98;65.88;99200.22;5021032;28;20042;-63
2022/07/11 09:56:42;;;;;;;2.17;0.50;;;;;;;18.92;65.28;99195.50;5046071;28;20121;-62
2022/07/11 09:59:30;;;;;;;3.38;0.60;;;;;;;19.15;65.30;99195.13;5034009;28;20069;-64
2022/07/11 10:02:16;;;;;;;7.82;0.70;;;;;;;18.61;65.27;99193.16;5034188;28;20489;-63
2022/07/11 10:05:02;;;;;;;1.65;0.50;;;;;;;18.46;66.25;99199.78;5031104;28;20120;-64
2022/07/11 10:07:47;;;;;;;3.70;0.70;;;;;;;18.56;68.93;99205.06;5034321;28;20045;-62
2022/07/11 10:10:33;;;;;;;3.05;0.50;;;;;;;18.73;66.92;99199.13;5049146;28;20049;-63
2022/07/11 10:13:18;;;;;;;1.10;0.40;;;;;;;18.27;70.01;99203.38;5043704;28;20394;-63
2022/07/11 10:16:07;;;;;;;1.63;0.60;;;;;;;17.76;71.97;99200.94;5045373;28;20103;-63
2022/07/11 10:19:14;;;;;;;3.40;0.57;;;;;;;17.46;74.17;99200.94;5043224;28;20414;-64
2022/07/11 10:22:06;;;;;;;1.02;0.45;;;;;;;17.33;72.93;99193.28;5043233;28;20057;-63
2022/07/11 10:25:10;;;;;;;2.42;0.50;;;;;;;17.35;72.74;99183.38;5026166;28;20057;-62
2022/07/11 10:28:07;;;;;;;3.97;0.75;;;;;;;17.52;73.12;99196.06;5019163;28;20056;-65
2022/07/11 10:30:59;;;;;;;1.00;0.50;;;;;;;17.40;74.04;99195.38;5025610;28;20119;-63
2022/07/11 10:34:04;;;;;;;1.90;0.60;;;;;;;17.28;72.77;99195.53;5031747;28;20052;-63
2022/07/11 10:36:51;;;;;;;3.92;0.75;;;;;;;17.08;74.51;99198.13;5018505;28;20057;-64
2022/07/11 10:39:37;;;;;;;3.47;0.73;;;;;;;17.22;73.55;99194.25;5025823;28;20065;-63
2022/07/11 10:42:39;;;;;;;2.13;0.65;;;;;;;17.17;71.06;99193.81;5012758;28;20413;-62
2022/07/11 10:45:23;;;;;;;2.05;0.90;;;;;;;17.03;71.51;99191.53;5028084;28;20544;-63
2022/07/11 10:48:19;;;;;;;2.47;0.82;;;;;;;17.37;73.97;99185.91;5033237;28;20042;-61
2022/07/11 10:51:34;;;;;;;3.03;0.70;;;;;;;17.50;68.97;99180.31;5031362;28;20525;-62
2022/07/11 10:54:48;;;;;;;1.98;0.63;;;;;;;17.42;71.00;99182.81;5011951;28;20503;-63
2022/07/11 10:58:03;;;;;;;5.93;1.08;;;;;;;17.56;71.83;99185.03;5022469;28;20049;-62
2022/07/11 11:01:06;;;;;;;3.03;0.70;;;;;;;17.84;69.99;99190.47;5026894;28;20482;-63
2022/07/11 11:03:51;;;;;;;0.90;0.70;;;;;;;18.09;69.30;99185.53;5017683;28;20057;-62
2022/07/11 11:06:55;;;;;;;2.30;0.70;;;;;;;19.50;61.79;99177.53;5020719;28;20054;-61
2022/07/11 11:09:40;;;;;;;2.40;0.50;;;;;;;21.36;55.28;99160.41;5036894;28;20512;-62
2022/07/11 11:13:06;;;;;;;2.58;0.75;;;;;;;22.91;49.28;99159.53;5037877;28;20038;-62
2022/07/11 11:15:55;;;;;;;1.15;0.52;;;;;;;24.52;44.18;99154.22;5040200;28;20103;-62
2022/07/11 11:18:43;;;;;;;2.42;0.65;;;;;;;25.01;40.46;99159.94;5031138;28;20417;-64
2022/07/11 11:21:28;;;;;;;4.35;0.45;;;;;;;25.37;39.81;99142.13;5029728;28;20053;-62
2022/07/11 11:24:17;;;;;;;3.45;0.70;;;;;;;24.93;42.32;99145.66;5044089;28;20049;-63
2022/07/11 11:27:05;;;;;;;2.38;0.70;;;;;;;23.87;41.66;99143.06;4991066;28;20041;-63
2022/07/11 11:29:55;;;;;;;1.35;0.63;;;;;;;23.40;44.27;99138.81;5030445;28;20060;-63
2022/07/11 11:32:40;;;;;;;4.32;0.63;;;;;;;22.80;44.28;99131.38;5041022;28;20068;-63
2022/07/11 11:35:27;;;;;;;5.50;0.60;;;;;;;23.08;45.37;99137.03;5022034;28;20044;-62
2022/07/11 11:38:12;;;;;;;3.42;0.60;;;;;;;25.33;40.94;99129.13;5036914;28;20539;-62
2022/07/11 11:40:56;;;;;;;2.90;0.60;;;;;;;23.87;40.71;99147.59;5019488;28;20512;-64
2022/07/11 11:43:46;;;;;;;2.53;0.85;;;;;;;24.18;39.15;99140.41;5017828;28;20045;-62
2022/07/11 11:46:36;;;;;;;2.53;0.70;;;;;;;23.07;40.29;99140.72;5030318;28;20073;-63
2022/07/11 11:49:23;;;;;;;1.75;0.95;;;;;;;22.05;43.73;99137.84;5019040;28;20111;-62
2022/07/11 11:52:10;;;;;;;1.98;0.55;;;;;;;23.40;41.31;99133.47;5014317;28;20065;-62
2022/07/11 11:54:57;;;;;;;2.40;0.57;;;;;;;25.03;37.93;99139.16;5035018;28;20571;-64
2022/07/11 11:57:42;;;;;;;2.88;0.60;;;;;;;25.28;36.16;99133.41;5025027;28;20044;-64
2022/07/11 12:00:29;;;;;;;1.70;0.52;;;;;;;25.77;39.57;99128.25;5020701;28;20117;-63
2022/07/11 12:03:14;;;;;;;0.75;0.30;;;;;;;25.24;39.73;99130.28;5025182;28;20037;-63
2022/07/11 12:05:59;;;;;;;3.28;0.60;;;;;;;26.22;35.30;99129.72;5034975;28;20489;-64
2022/07/11 12:08:44;;;;;;;1.58;0.60;;;;;;;27.84;33.50;99129.19;5023363;28;20056;-64
2022/07/11 12:11:32;;;;;;;2.22;0.52;;;;;;;26.68;38.32;99118.38;5036405;28;20052;-65
2022/07/11 12:15:26;;;;;;;1.65;0.40;;;;;;;25.96;34.06;99134.75;4993853;28;20070;-66
2022/07/11 12:18:38;;;;;;;2.30;0.75;;;;;;;22.99;37.38;99135.44;5025254;28;20050;-63
2022/07/11 12:21:30;;;;;;;2.88;1.02;;;;;;;22.11;43.86;99144.34;5029639;28;20498;-63
2022/07/11 12:24:26;;;;;;;2.28;0.50;;;;;;;22.21;41.26;99157.50;5038295;28;20038;-63
2022/07/11 12:27:14;;;;;;;2.63;0.57;;;;;;;21.55;39.60;99151.25;5014979;28;20053;-63
2022/07/11 12:29:59;;;;;;;4.10;0.70;;;;;;;21.50;40.60;99148.25;5021691;28;20067;-62
2022/07/11 12:33:08;;;;;;;1.50;0.40;;;;;;;21.39;40.54;99147.59;5019390;28;20034;-63
2022/07/11 12:36:02;;;;;;;2.67;0.60;;;;;;;22.33;40.71;99147.25;5032522;28;20109;-63
2022/07/11 12:38:53;;;;;;;1.48;0.40;;;;;;;22.93;39.25;99144.97;5035123;28;20038;-64
2022/07/11 12:41:38;;;;;;;1.35;0.63;;;;;;;24.65;36.71;99145.50;5041559;28;20099;-63
2022/07/11 12:47:29;;;;;;;2.47;0.50;;;;;;;25.23;33.91;99128.63;5030412;28;20061;-63
2022/07/11 12:50:15;;;;;;;1.88;0.47;;;;;;;25.11;33.55;99125.63;5030179;28;20053;-64
2022/07/11 12:53:00;;;;;;;4.03;0.50;;;;;;;26.16;34.12;99120.63;5026218;28;20554;-63
2022/07/11 12:55:45;;;;;;;1.80;0.47;;;;;;;25.71;33.00;99119.09;5035011;28;20072;-63
2022/07/11 12:58:38;;;;;;;3.17;0.45;;;;;;;26.76;30.71;99117.34;5032092;28;20520;-62
2022/07/11 13:01:23;;;;;;;2.72;0.68;;;;;;;26.35;32.29;99112.88;5022765;28;20041;-63
2022/07/11 13:04:28;;;;;;;3.30;0.47;;;;;;;25.47;31.66;99113.16;5028720;28;20093;-63
2022/07/11 13:10:25;;;;;;;1.50;0.32;;;;;;;25.00;33.83;99115.44;5027611;28;20383;-63
2022/07/11 13:13:10;;;;;;;2.22;0.50;;;;;;;25.20;33.03;99111.06;5031583;28;20038;-65
2022/07/11 13:15:54;;;;;;;2.22;0.43;;;;;;;26.03;31.32;99108.75;5022535;28;20048;-63
2022/07/11 13:18:40;;;;;;;1.95;0.40;;;;;;;26.19;29.87;99109.47;5014848;28;20060;-65
2022/07/11 13:21:25;;;;;;;1.98;0.55;;;;;;;24.57;31.61;99122.38;5030869;28;20040;-64